createdAt,value
2022-11-27T00:01:28.911Z,57.28
2022-11-27T00:03:56.819Z,57.55
2022-11-27T00:06:25.322Z,57.37
2022-11-27T00:08:53.004Z,57.44
2022-11-27T00:11:21.637Z,57.39
2022-11-27T00:13:50.809Z,57.57
2022-11-27T00:16:18.633Z,57.45
2022-11-27T00:18:46.413Z,57.52
2022-11-27T00:21:15.327Z,57.48
2022-11-27T00:23:42.957Z,57.60
2022-11-27T00:26:10.661Z,57.45
2022-11-27T00:28:38.779Z,57.70
2022-11-27T00:31:09.747Z,57.71
2022-11-27T00:33:37.664Z,57.61
2022-11-27T00:36:05.776Z,57.84
2022-11-27T00:38:37.403Z,58.03
2022-11-27T00:41:07.476Z,57.81
2022-11-27T00:43:43.635Z,57.97
2022-11-27T00:46:13.614Z,57.76
2022-11-27T00:48:41.420Z,58.02
2022-11-27T00:51:10.060Z,58.07
2022-11-27T00:53:37.771Z,58.14
2022-11-27T00:56:05.950Z,58.00
2022-11-27T00:58:33.670Z,57.97
2022-11-27T01:01:02.341Z,58.11
2022-11-27T01:03:31.529Z,58.12
2022-11-27T01:06:03.101Z,58.00
2022-11-27T01:08:30.757Z,58.35
2022-11-27T01:10:58.782Z,58.27
2022-11-27T01:13:27.042Z,58.27
2022-11-27T01:15:59.856Z,58.32
2022-11-27T01:18:27.536Z,58.36
2022-11-27T01:20:56.688Z,58.24
2022-11-27T01:23:24.483Z,58.54
2022-11-27T01:25:53.341Z,58.35
2022-11-27T01:28:21.142Z,58.53
2022-11-27T01:30:48.862Z,58.25
2022-11-27T01:33:16.649Z,58.46
2022-11-27T01:35:44.276Z,58.48
2022-11-27T01:38:13.261Z,58.56
2022-11-27T01:40:40.875Z,58.53
2022-11-27T01:43:11.944Z,58.60
2022-11-27T01:45:39.672Z,58.45
2022-11-27T01:48:07.313Z,58.33
2022-11-27T01:50:37.159Z,58.31
2022-11-27T01:53:09.360Z,58.45
2022-11-27T01:55:40.950Z,58.39
2022-11-27T01:58:09.673Z,58.47
2022-11-27T02:00:37.313Z,58.43
2022-11-27T02:03:05.161Z,58.33
2022-11-27T02:05:33.522Z,58.38
2022-11-27T02:08:03.554Z,58.61
2022-11-27T02:10:39.733Z,58.52
2022-11-27T02:13:10.109Z,58.37
2022-11-27T02:15:44.055Z,58.40
2022-11-27T02:18:15.565Z,58.29
2022-11-27T02:20:49.643Z,58.35
2022-11-27T02:23:30.890Z,58.36
2022-11-27T02:26:19.512Z,58.32
2022-11-27T02:29:03.844Z,58.37
2022-11-27T02:31:36.682Z,58.52
2022-11-27T02:34:09.132Z,58.53
2022-11-27T02:36:37.866Z,58.46
2022-11-27T02:39:09.102Z,58.40
2022-11-27T02:41:40.400Z,58.52
2022-11-27T02:44:12.793Z,58.35
2022-11-27T02:46:41.398Z,58.45
2022-11-27T02:49:12.379Z,58.49
2022-11-27T02:51:50.713Z,58.32
2022-11-27T02:54:27.756Z,58.44
2022-11-27T02:56:59.186Z,58.47
2022-11-27T02:59:49.264Z,58.34
2022-11-27T03:02:19.931Z,58.38
2022-11-27T03:04:50.845Z,58.35
2022-11-27T03:07:23.842Z,58.33
2022-11-27T03:10:00.116Z,58.46
2022-11-27T03:12:36.533Z,58.23
2022-11-27T03:15:13.113Z,58.40
2022-11-27T03:17:51.545Z,58.25
2022-11-27T03:20:27.201Z,58.49
2022-11-27T03:23:02.465Z,58.34
2022-11-27T03:25:31.500Z,58.31
2022-11-27T03:28:00.405Z,58.44
2022-11-27T03:30:38.168Z,58.22
2022-11-27T03:33:16.756Z,58.33
2022-11-27T03:35:52.498Z,58.24
2022-11-27T03:38:24.183Z,58.33
2022-11-27T03:40:59.476Z,58.13
2022-11-27T03:43:37.283Z,58.30
2022-11-27T03:46:20.059Z,58.30
2022-11-27T03:49:02.992Z,58.31
2022-11-27T03:51:46.315Z,58.32
2022-11-27T03:54:21.694Z,58.25
2022-11-27T03:56:55.474Z,58.29
2022-11-27T03:59:31.938Z,58.49
2022-11-27T04:02:09.687Z,58.29
2022-11-27T04:04:40.909Z,58.37
2022-11-27T04:07:27.849Z,58.68
2022-11-27T04:10:03.469Z,58.63
2022-11-27T04:12:35.914Z,58.58
2022-11-27T04:15:21.867Z,58.56
2022-11-27T04:18:01.698Z,58.52
2022-11-27T04:20:32.731Z,58.79
2022-11-27T04:23:06.556Z,58.64
2022-11-27T04:25:46.735Z,58.77
2022-11-27T04:28:24.487Z,58.72
2022-11-27T04:30:56.046Z,58.69
2022-11-27T04:33:37.142Z,58.65
2022-11-27T04:36:07.263Z,58.82
2022-11-27T04:38:41.638Z,58.92
2022-11-27T04:41:16.197Z,58.85
2022-11-27T04:43:55.871Z,59.02
2022-11-27T04:46:29.670Z,58.93
2022-11-27T04:49:07.723Z,59.04
2022-11-27T04:51:44.464Z,58.92
2022-11-27T04:54:17.846Z,58.77
2022-11-27T04:56:52.332Z,58.81
2022-11-27T04:59:25.053Z,58.79
2022-11-27T05:01:53.220Z,58.88
2022-11-27T05:04:28.257Z,59.02
2022-11-27T05:07:07.016Z,58.84
2022-11-27T05:09:45.384Z,58.74
2022-11-27T05:12:26.876Z,59.14
2022-11-27T05:15:03.147Z,58.66
2022-11-27T05:17:33.546Z,58.98
2022-11-27T05:20:04.405Z,59.16
2022-11-27T05:22:36.779Z,59.38
2022-11-27T05:25:05.754Z,59.11
2022-11-27T05:27:33.916Z,59.42
2022-11-27T05:30:11.437Z,58.93
2022-11-27T05:32:46.602Z,59.58
2022-11-27T05:35:25.393Z,59.24
2022-11-27T05:37:58.783Z,59.44
2022-11-27T05:40:39.356Z,59.18
2022-11-27T05:43:16.939Z,59.02
2022-11-27T05:45:59.140Z,58.99
2022-11-27T05:48:36.176Z,59.28
2022-11-27T05:51:18.136Z,59.23
2022-11-27T05:53:49.234Z,59.18
2022-11-27T05:56:39.807Z,59.27
2022-11-27T05:59:18.542Z,59.25
2022-11-27T06:01:55.806Z,59.65
2022-11-27T06:04:41.587Z,59.63
2022-11-27T06:07:19.236Z,59.51
2022-11-27T06:10:05.952Z,59.28
2022-11-27T06:12:41.063Z,59.33
2022-11-27T06:15:14.902Z,59.76
2022-11-27T06:17:45.990Z,59.43
2022-11-27T06:20:22.629Z,59.56
2022-11-27T06:22:59.624Z,59.29
2022-11-27T06:25:50.413Z,59.60
2022-11-27T06:28:25.786Z,59.18
2022-11-27T06:31:06.384Z,59.61
2022-11-27T06:33:42.005Z,59.51
2022-11-27T06:36:22.803Z,59.75
2022-11-27T06:39:33.264Z,59.39
2022-11-27T06:42:09.156Z,59.79
2022-11-27T06:44:44.739Z,59.57
2022-11-27T06:47:21.288Z,59.84
2022-11-27T06:49:53.457Z,59.62
2022-11-27T06:52:40.391Z,59.88
2022-11-27T06:55:20.085Z,59.55
2022-11-27T06:57:57.374Z,59.77
2022-11-27T07:00:30.046Z,59.66
2022-11-27T07:03:11.787Z,59.84
2022-11-27T07:05:46.051Z,59.94
2022-11-27T07:08:25.073Z,59.88
2022-11-27T07:11:40.822Z,59.63
2022-11-27T07:14:58.852Z,59.79
2022-11-27T07:17:31.964Z,59.64
2022-11-27T07:20:08.541Z,59.57
2022-11-27T07:23:09.803Z,59.86
2022-11-27T07:25:56.834Z,59.49
2022-11-27T07:28:31.010Z,59.63
2022-11-27T07:31:16.699Z,59.42
2022-11-27T07:33:55.747Z,59.67
2022-11-27T07:36:27.873Z,59.67
2022-11-27T07:38:55.794Z,59.66
2022-11-27T07:41:40.009Z,59.74
2022-11-27T07:44:23.879Z,59.54
2022-11-27T07:47:02.125Z,40.66
2022-11-27T07:49:37.533Z,36.49
2022-11-27T07:52:05.473Z,35.08
2022-11-27T07:54:46.768Z,34.43
2022-11-27T07:57:18.707Z,35.17
2022-11-27T08:00:11.083Z,39.49
2022-11-27T08:02:38.924Z,41.65
2022-11-27T08:05:12.393Z,43.79
2022-11-27T08:07:40.996Z,45.47
2022-11-27T08:10:09.314Z,46.30
2022-11-27T08:12:37.039Z,46.78
2022-11-27T08:15:33.159Z,47.29
2022-11-27T08:18:00.824Z,47.82
2022-11-27T08:20:28.647Z,48.09
2022-11-27T08:23:02.705Z,48.48
2022-11-27T08:25:30.967Z,48.86
2022-11-27T08:27:58.689Z,49.35
2022-11-27T08:30:26.376Z,49.66
2022-11-27T08:32:55.520Z,49.61
2022-11-27T08:35:23.749Z,49.94
2022-11-27T08:38:10.608Z,50.41
2022-11-27T08:40:39.583Z,49.39
2022-11-27T08:43:07.786Z,49.56
2022-11-27T08:45:36.211Z,49.43
2022-11-27T08:48:05.836Z,49.34
2022-11-27T08:50:33.862Z,49.08
2022-11-27T08:53:01.616Z,49.17
2022-11-27T08:55:29.244Z,49.16
2022-11-27T08:57:57.070Z,49.30
2022-11-27T09:00:27.962Z,49.22
2022-11-27T09:02:55.978Z,49.14
2022-11-27T09:05:25.212Z,48.76
2022-11-27T09:07:52.903Z,48.87
2022-11-27T09:10:20.552Z,49.08
2022-11-27T09:12:49.316Z,49.14
2022-11-27T09:15:17.296Z,49.60
2022-11-27T09:17:44.976Z,49.84
2022-11-27T09:20:14.275Z,50.23
2022-11-27T09:22:43.444Z,50.62
2022-11-27T09:25:11.287Z,50.79
2022-11-27T09:27:39.290Z,50.83
2022-11-27T09:30:08.874Z,50.79
2022-11-27T09:32:36.561Z,50.54
2022-11-27T09:35:04.444Z,50.54
2022-11-27T09:37:32.249Z,51.03
2022-11-27T09:40:01.530Z,51.25
2022-11-27T09:42:40.940Z,51.38
2022-11-27T09:45:12.066Z,51.51
2022-11-27T09:47:42.114Z,51.87
2022-11-27T09:50:13.684Z,52.20
2022-11-27T09:52:42.824Z,52.21
2022-11-27T09:55:15.436Z,52.33
2022-11-27T09:57:43.065Z,52.44
2022-11-27T10:00:14.411Z,52.41
2022-11-27T10:02:43.032Z,52.78
2022-11-27T10:05:15.303Z,52.78
2022-11-27T10:07:50.766Z,52.81
2022-11-27T10:10:30.356Z,52.82
2022-11-27T10:13:01.526Z,52.83
2022-11-27T10:15:34.319Z,53.05
2022-11-27T10:18:04.037Z,53.38
2022-11-27T10:20:33.415Z,53.72
2022-11-27T10:23:03.227Z,53.60
2022-11-27T10:25:34.901Z,53.62
2022-11-27T10:28:07.440Z,53.48
2022-11-27T10:30:38.499Z,53.59
2022-11-27T10:33:13.259Z,53.41
2022-11-27T10:35:40.896Z,53.84
2022-11-27T10:38:12.000Z,53.74
2022-11-27T10:40:42.817Z,53.86
2022-11-27T10:43:11.830Z,53.99
2022-11-27T10:45:43.701Z,54.26
2022-11-27T10:48:11.537Z,54.17
2022-11-27T10:50:39.213Z,54.32
2022-11-27T10:53:08.244Z,54.29
2022-11-27T10:55:45.375Z,54.50
2022-11-27T10:58:16.969Z,54.52
2022-11-27T11:00:44.836Z,54.63
2022-11-27T11:03:17.132Z,54.63
2022-11-27T11:06:19.522Z,54.56
2022-11-27T11:08:42.742Z,54.64
2022-11-27T11:11:14.160Z,54.54
2022-11-27T11:13:45.912Z,54.96
2022-11-27T11:16:23.370Z,55.08
2022-11-27T11:18:52.873Z,54.89
2022-11-27T11:21:24.477Z,54.94
2022-11-27T11:23:54.460Z,54.87
2022-11-27T11:26:28.116Z,53.44
2022-11-27T11:28:57.041Z,52.68
2022-11-27T11:31:29.973Z,51.89
2022-11-27T11:33:58.934Z,52.20
2022-11-27T11:36:26.601Z,52.08
2022-11-27T11:38:54.309Z,52.34
2022-11-27T11:41:23.710Z,52.56
2022-11-27T11:43:57.148Z,52.69
2022-11-27T11:46:26.153Z,53.04
2022-11-27T11:48:58.744Z,53.15
2022-11-27T11:51:36.066Z,53.56
2022-11-27T11:54:10.714Z,54.26
2022-11-27T11:56:39.692Z,54.32
2022-11-27T11:59:11.685Z,54.65
2022-11-27T12:01:46.536Z,54.65
2022-11-27T12:04:23.714Z,54.71
2022-11-27T12:06:55.901Z,54.85
2022-11-27T12:09:28.531Z,55.18
2022-11-27T12:11:58.716Z,54.86
2022-11-27T12:14:37.400Z,51.24
2022-11-27T12:17:10.232Z,39.82
2022-11-27T12:19:51.613Z,47.02
2022-11-27T12:22:25.448Z,48.84
2022-11-27T12:24:56.767Z,50.24
2022-11-27T12:27:28.496Z,52.39
2022-11-27T12:30:05.165Z,52.48
2022-11-27T12:32:57.476Z,53.43
2022-11-27T12:35:32.116Z,54.58
2022-11-27T12:38:15.385Z,54.85
2022-11-27T12:40:56.507Z,55.75
2022-11-27T12:43:25.480Z,56.23
2022-11-27T12:45:56.773Z,56.35
2022-11-27T12:48:25.493Z,55.75
2022-11-27T12:50:55.237Z,56.39
2022-11-27T12:53:25.440Z,57.37
2022-11-27T12:56:00.225Z,57.57
2022-11-27T12:58:29.553Z,58.07
2022-11-27T13:01:23.643Z,58.81
2022-11-27T13:04:23.297Z,58.89
2022-11-27T13:07:13.073Z,59.21
2022-11-27T13:10:04.345Z,59.56
2022-11-27T13:12:33.656Z,60.06
2022-11-27T13:15:03.306Z,60.36
2022-11-27T13:17:35.176Z,60.29
2022-11-27T13:20:02.804Z,60.67
2022-11-27T13:22:32.065Z,61.00
2022-11-27T13:25:01.581Z,60.99
2022-11-27T13:27:30.048Z,61.17
2022-11-27T13:29:58.740Z,61.42
2022-11-27T13:32:28.761Z,61.76
2022-11-27T13:34:58.638Z,61.65
2022-11-27T13:37:28.838Z,61.99
2022-11-27T13:40:07.055Z,62.12
2022-11-27T13:42:35.719Z,62.20
2022-11-27T13:45:05.810Z,61.21
2022-11-27T13:47:37.547Z,61.53
2022-11-27T13:50:09.097Z,61.29
2022-11-27T13:52:36.962Z,62.22
2022-11-27T13:55:06.233Z,62.71
2022-11-27T13:57:34.275Z,63.65
2022-11-27T14:00:02.694Z,63.63
2022-11-27T14:02:41.534Z,64.27
2022-11-27T14:05:11.160Z,64.41
2022-11-27T14:07:41.166Z,65.44
2022-11-27T14:10:11.353Z,65.27
2022-11-27T14:12:38.980Z,65.34
2022-11-27T14:15:09.863Z,65.37
2022-11-27T14:17:39.463Z,66.16
2022-11-27T14:20:23.878Z,66.12
2022-11-27T14:23:13.244Z,66.30
2022-11-27T14:25:40.820Z,66.21
2022-11-27T14:28:15.712Z,66.43
2022-11-27T14:30:46.885Z,66.45
2022-11-27T14:33:19.082Z,66.16
2022-11-27T14:35:49.264Z,66.07
2022-11-27T14:38:18.262Z,65.76
2022-11-27T14:40:46.222Z,65.39
2022-11-27T14:43:16.304Z,65.15
2022-11-27T14:45:45.814Z,65.03
2022-11-27T14:48:17.028Z,63.56
2022-11-27T14:50:44.606Z,61.09
2022-11-27T14:53:13.843Z,57.92
2022-11-27T14:55:42.914Z,56.25
2022-11-27T14:58:12.402Z,54.65
2022-11-27T15:00:39.981Z,53.93
2022-11-27T15:03:11.574Z,57.07
2022-11-27T15:05:39.442Z,57.91
2022-11-27T15:08:09.790Z,58.19
2022-11-27T15:10:38.148Z,58.26
2022-11-27T15:13:08.165Z,58.25
2022-11-27T15:15:39.291Z,58.16
2022-11-27T15:18:07.853Z,57.85
2022-11-27T15:20:37.485Z,57.94
2022-11-27T15:23:05.188Z,57.80
2022-11-27T15:25:38.040Z,57.62
2022-11-27T15:28:33.567Z,57.54
2022-11-27T15:31:01.201Z,57.09
2022-11-27T15:33:29.511Z,57.29
2022-11-27T15:36:14.083Z,57.04
2022-11-27T15:38:42.101Z,56.95
2022-11-27T15:41:20.026Z,56.92
2022-11-27T15:43:49.032Z,56.65
2022-11-27T15:46:16.756Z,56.74
2022-11-27T15:48:44.423Z,56.49
2022-11-27T15:51:12.324Z,56.19
2022-11-27T15:53:40.049Z,56.06
2022-11-27T15:56:08.305Z,55.90
2022-11-27T15:58:35.971Z,55.66
2022-11-27T16:01:06.328Z,55.16
2022-11-27T16:03:33.972Z,55.45
2022-11-27T16:06:04.501Z,55.19
2022-11-27T16:08:32.160Z,55.09
2022-11-27T16:11:03.053Z,54.90
2022-11-27T16:13:30.768Z,54.88
2022-11-27T16:16:02.198Z,54.70
2022-11-27T16:18:32.167Z,54.64
2022-11-27T16:21:03.485Z,54.52
2022-11-27T16:23:31.343Z,50.60
2022-11-27T16:25:59.210Z,51.00
2022-11-27T16:28:26.864Z,52.63
2022-11-27T16:30:54.738Z,53.12
2022-11-27T16:33:22.433Z,53.02
2022-11-27T16:35:52.319Z,53.41
2022-11-27T16:38:22.113Z,53.63
2022-11-27T16:40:49.791Z,53.46
2022-11-27T16:43:17.404Z,53.51
2022-11-27T16:45:45.040Z,53.44
2022-11-27T16:48:12.750Z,53.83
2022-11-27T16:50:40.487Z,54.00
2022-11-27T16:53:09.592Z,53.93
2022-11-27T16:55:37.299Z,54.31
2022-11-27T16:58:04.908Z,54.61
2022-11-27T17:00:32.464Z,54.96
2022-11-27T17:03:00.105Z,55.41
2022-11-27T17:05:27.765Z,55.30
2022-11-27T17:07:55.583Z,54.91
2022-11-27T17:10:24.578Z,54.76
2022-11-27T17:12:52.224Z,55.12
2022-11-27T17:15:19.829Z,55.19
2022-11-27T17:17:47.404Z,55.19
2022-11-27T17:20:14.991Z,55.13
2022-11-27T17:22:42.599Z,55.39
2022-11-27T17:25:11.045Z,55.39
2022-11-27T17:27:39.927Z,55.48
2022-11-27T17:30:08.967Z,55.38
2022-11-27T17:32:36.575Z,55.59
2022-11-27T17:35:04.258Z,55.60
2022-11-27T17:37:31.819Z,55.94
2022-11-27T17:39:59.440Z,55.91
2022-11-27T17:42:27.132Z,55.93
2022-11-27T17:44:56.364Z,56.04
2022-11-27T17:47:23.964Z,56.19
2022-11-27T17:49:51.672Z,56.32
2022-11-27T17:52:19.422Z,56.34
2022-11-27T17:54:47.076Z,56.64
2022-11-27T17:57:14.639Z,56.39
2022-11-27T17:59:42.413Z,56.61
2022-11-27T18:02:12.509Z,56.58
2022-11-27T18:04:40.156Z,56.53
2022-11-27T18:07:07.823Z,56.40
2022-11-27T18:09:35.391Z,56.59
2022-11-27T18:12:02.993Z,56.42
2022-11-27T18:14:30.586Z,56.33
2022-11-27T18:17:03.984Z,56.12
2022-11-27T18:19:32.946Z,56.28
2022-11-27T18:22:00.842Z,56.18
2022-11-27T18:24:28.521Z,55.97
2022-11-27T18:27:11.567Z,56.09
2022-11-27T18:29:40.093Z,56.07
2022-11-27T18:32:08.093Z,55.51
2022-11-27T18:34:37.053Z,55.63
2022-11-27T18:37:04.941Z,55.39
2022-11-27T18:39:32.626Z,55.38
2022-11-27T18:42:00.203Z,55.39
2022-11-27T18:44:27.798Z,55.36
2022-11-27T18:46:55.591Z,55.21
2022-11-27T18:49:23.733Z,55.12
2022-11-27T18:51:53.080Z,55.12
2022-11-27T18:54:20.690Z,55.21
2022-11-27T18:56:48.264Z,54.99
2022-11-27T18:59:16.527Z,55.08
2022-11-27T19:01:44.114Z,53.00
2022-11-27T19:04:11.885Z,51.49
2022-11-27T19:06:39.720Z,50.75
2022-11-27T19:09:08.694Z,50.34
2022-11-27T19:11:36.321Z,50.41
2022-11-27T19:14:04.536Z,50.36
2022-11-27T19:16:33.057Z,49.97
2022-11-27T19:19:01.263Z,49.94
2022-11-27T19:21:29.568Z,49.87
2022-11-27T19:23:57.755Z,49.53
2022-11-27T19:26:27.839Z,50.69
2022-11-27T19:28:56.830Z,51.36
2022-11-27T19:31:24.935Z,50.30
2022-11-27T19:33:53.124Z,49.30
2022-11-27T19:36:20.764Z,51.16
2022-11-27T19:38:48.417Z,51.66
2022-11-27T19:41:17.072Z,51.89
2022-11-27T19:43:47.197Z,52.17
2022-11-27T19:46:16.225Z,52.38
2022-11-27T19:48:44.079Z,52.54
2022-11-27T19:51:12.096Z,52.68
2022-11-27T19:53:39.945Z,52.76
2022-11-27T19:56:10.893Z,52.87
2022-11-27T19:58:38.653Z,53.15
2022-11-27T20:01:08.596Z,53.13
2022-11-27T20:03:36.810Z,53.12
2022-11-27T20:06:05.851Z,53.20
2022-11-27T20:08:33.491Z,53.42
2022-11-27T20:11:01.129Z,53.11
2022-11-27T20:13:28.739Z,53.03
2022-11-27T20:15:56.495Z,53.53
2022-11-27T20:18:26.351Z,53.28
2022-11-27T20:20:53.952Z,53.44
2022-11-27T20:23:21.598Z,53.35
2022-11-27T20:25:50.452Z,50.12
2022-11-27T20:28:18.092Z,48.82
2022-11-27T20:30:45.787Z,48.48
2022-11-27T20:33:17.445Z,48.37
2022-11-27T20:35:46.590Z,48.67
2022-11-27T20:38:14.203Z,49.49
2022-11-27T20:40:41.736Z,50.19
2022-11-27T20:43:09.584Z,49.63
2022-11-27T20:45:37.812Z,50.05
2022-11-27T20:48:05.876Z,50.80
2022-11-27T20:50:33.487Z,50.91
2022-11-27T20:53:02.450Z,51.08
2022-11-27T20:55:30.566Z,51.16
2022-11-27T20:57:58.148Z,51.30
2022-11-27T21:00:25.840Z,51.54
2022-11-27T21:02:53.457Z,51.63
2022-11-27T21:05:21.471Z,51.77
2022-11-27T21:07:49.144Z,51.80
2022-11-27T21:10:20.013Z,52.03
2022-11-27T21:12:47.647Z,52.19
2022-11-27T21:15:15.304Z,52.30
2022-11-27T21:17:43.293Z,52.48
2022-11-27T21:20:11.652Z,52.64
2022-11-27T21:22:42.495Z,52.88
2022-11-27T21:25:10.182Z,52.77
2022-11-27T21:27:39.455Z,52.99
2022-11-27T21:30:08.455Z,53.08
2022-11-27T21:32:36.176Z,53.17
2022-11-27T21:35:04.069Z,53.50
2022-11-27T21:37:31.693Z,53.58
2022-11-27T21:39:59.392Z,53.65
2022-11-27T21:42:29.127Z,53.90
2022-11-27T21:44:58.315Z,53.86
2022-11-27T21:47:25.947Z,53.80
2022-11-27T21:49:53.529Z,54.04
2022-11-27T21:52:21.160Z,53.94
2022-11-27T21:54:48.803Z,54.14
2022-11-27T21:57:17.165Z,54.00
2022-11-27T21:59:44.794Z,54.21
2022-11-27T22:02:14.209Z,54.22
2022-11-27T22:04:43.161Z,54.17
2022-11-27T22:07:11.048Z,54.37
2022-11-27T22:09:38.655Z,54.50
2022-11-27T22:12:06.980Z,54.46
2022-11-27T22:14:34.715Z,54.52
2022-11-27T22:17:02.414Z,54.52
2022-11-27T22:19:31.435Z,54.31
2022-11-27T22:21:59.109Z,54.45
2022-11-27T22:24:26.727Z,54.46
2022-11-27T22:26:54.308Z,54.53
2022-11-27T22:29:22.023Z,54.46
2022-11-27T22:31:49.597Z,54.53
2022-11-27T22:34:17.277Z,54.79
2022-11-27T22:36:46.210Z,54.56
2022-11-27T22:39:13.824Z,54.84
2022-11-27T22:41:41.563Z,54.62
2022-11-27T22:44:09.571Z,54.74
2022-11-27T22:46:37.380Z,55.06
2022-11-27T22:49:06.284Z,54.89
2022-11-27T22:51:34.716Z,55.02
2022-11-27T22:54:03.825Z,54.89
2022-11-27T22:56:33.536Z,54.98
2022-11-27T22:59:24.773Z,55.08
2022-11-27T23:01:49.469Z,55.12
2022-11-27T23:04:17.200Z,55.12
2022-11-27T23:06:47.835Z,55.06
2022-11-27T23:09:17.704Z,55.07
2022-11-27T23:11:45.389Z,55.17
2022-11-27T23:14:13.460Z,55.20
2022-11-27T23:16:41.213Z,55.29
2022-11-27T23:19:08.887Z,55.28
2022-11-27T23:21:38.549Z,55.34
2022-11-27T23:24:06.590Z,55.15
2022-11-27T23:26:35.634Z,55.36
2022-11-27T23:29:03.408Z,55.29
2022-11-27T23:31:32.404Z,55.34
2022-11-27T23:34:01.270Z,55.41
2022-11-27T23:36:28.975Z,55.50
2022-11-27T23:38:56.565Z,55.42
2022-11-27T23:41:25.301Z,55.30
2022-11-27T23:43:54.501Z,55.50
2022-11-27T23:46:23.523Z,55.55
2022-11-27T23:48:51.204Z,55.64
2022-11-27T23:51:19.973Z,55.38
2022-11-27T23:53:47.882Z,55.56
2022-11-27T23:56:16.450Z,55.55
2022-11-27T23:58:47.378Z,55.70
